x

West Oregon - 275nm West Of Coos Bay, Or (46002) Wave Buoy

1:50am - Wed 3rd Sep 2014 All times are UTC.

  • Sig Wave height 6.2ft
  • Peak Period 9s
  • Average Period 6s
  • Wind
    18mph, 22mph gusts
  • Sea Temp 69°f
  • Air Temp 67°f
  • Sea Pressure 1019.1mb

More Historic Weather Station data

Upgrade to MSW Pro to gain access to the past 30 days of data for over 8000 Wavebouys and Weather Stations around the globe.

Join Pro

Comparision Forecast

View Surf forecast
   
Wed 09/03 1:50am 6ft 9s 6s 18 22 mph 1019.1mb 69f 67f
12:50am 6ft 9s 6s 22 27 mph 1019mb 69f 67f
Tue 09/02 11:50pm 6ft 9s 6s 18 22 mph 1019.2mb 69f 68f
10:50pm  -   -   -  18 22 mph 1019.6mb 69f 68f
9:50pm 6ft 9s 6s 18 20 mph 1020.1mb 68f 67f
8:50pm 6ft 10s 6s 18 20 mph 1020.2mb 68f 67f
7:50pm 6ft 10s 6s 18 20 mph 1020.2mb 68f 66f
6:50pm 6ft 9s 6s 18 20 mph 1020.2mb 68f 67f
5:50pm 6.5ft 9s 6s 20 27 mph 1019.8mb 68f 67f
4:50pm 7ft 10s 6s 18 22 mph 1019.8mb 68f 66f
3:50pm 7.5ft 9s 6s 20 25 mph 1019.5mb 68f 66f
2:50pm 7ft 8s 6s 20 25 mph 1019.3mb 68f 66f
1:50pm 7ft 9s 6s 18 25 mph 1019mb 68f 66f
12:50pm 7.5ft 9s 7s 22 27 mph 1019mb 68f 66f
11:50am 7ft 9s 6s 16 20 mph 1019.3mb 68f 66f
10:50am 6ft 9s 6s 18 20 mph 1019.6mb 68f 67f
9:50am 6.5ft 9s 6s 18 22 mph 1019.6mb 68f 67f
8:50am 6ft 9s 6s 18 22 mph 1020mb 68f 67f
7:50am 6ft 8s 6s 20 25 mph 1020.1mb 68f 67f
6:50am 6ft 9s 6s 18 22 mph 1020.5mb 68f 67f
5:50am 6ft 8s 6s 18 22 mph 1020.4mb 69f 67f
4:50am 5.5ft 8s 6s 16 20 mph 1020.4mb 69f 67f
3:50am 6ft 8s 6s 18 22 mph 1020mb 69f 67f
2:50am 6ft 8s 6s 18 20 mph 1019.6mb 69f 67f
1:50am 5.5ft 8s 6s 18 22 mph 1019.8mb 69f 67f
12:50am 5.5ft 7s 6s 18 22 mph 1019.8mb 69f 67f
Mon 09/01 11:50pm 5ft 7s 6s 18 20 mph 1020.1mb 69f 67f
10:50pm 6ft 15s 6s 18 20 mph 1020.5mb 69f 68f
9:50pm 6ft 8s 6s 18 22 mph 1020.5mb 69f 68f
8:50pm 5.5ft 15s 6s 18 20 mph 1020.5mb 69f 68f
7:50pm 5ft 15s 6s 18 20 mph 1020.6mb 69f 68f
6:50pm 5ft 8s 6s 16 18 mph 1020.6mb 69f 67f
5:50pm 5ft 15s 5s 13 18 mph 1020.4mb 69f 68f
4:50pm 5ft 14s 5s 18 22 mph 1019.9mb 68f 67f
3:50pm 5ft 15s 6s 18 20 mph 1019.9mb 68f 66f
2:50pm 5ft 9s 6s 18 22 mph 1019.7mb 68f 67f
1:50pm 5ft 15s 6s 18 20 mph 1019.3mb 68f 66f
12:50pm 4.5ft 9s 6s 11 13 mph 1019.3mb 69f 67f
11:50am 4.5ft 9s 6s 13 16 mph 1019.5mb 69f 67f
10:50am 5ft 15s 6s 11 13 mph 1019.7mb 69f 66f
9:50am 5ft 15s 6s 13 16 mph 1019.8mb 69f 67f
8:50am 5ft 9s 6s 16 18 mph 1019.9mb 69f 68f
7:50am 5ft 9s 6s 13 16 mph 1019.8mb 69f 68f
6:50am 5ft 8s 6s 18 20 mph 1019.6mb 69f 68f
5:50am 5ft 9s 6s 18 22 mph 1019.4mb 69f 66f
4:50am 5ft 9s 7s 18 22 mph 1019.3mb 69f 67f
3:50am 5ft 9s 6s 13 16 mph 1018.8mb 69f 68f
2:50am 5.5ft 9s 7s 13 16 mph 1018.7mb 69f 69f
1:50am 5ft 9s 6s 13 16 mph 1018.8mb 69f 69f
12:50am 5.5ft 9s 7s 13 16 mph 1018.6mb 69f 69f
Sun 08/31 11:50pm 5ft 10s 7s 13 16 mph 1018.6mb 69f 68f
10:50pm 5ft 10s 7s 13 16 mph 1018.8mb 69f 69f
9:50pm 5ft 9s 7s 13 16 mph 1019mb 69f 68f
8:50pm 5.5ft 10s 7s 18 20 mph 1018.9mb 69f 69f
7:50pm 5ft 9s 8s 11 16 mph 1019.3mb 69f 69f
6:50pm 5ft 11s 8s 7 9 mph 1019.5mb 69f 67f
5:50pm 5.5ft 10s 7s 9 11 mph 1019.4mb 69f 68f
4:50pm 5ft 10s 7s 11 13 mph 1019.1mb 68f 67f
3:50pm 6ft 10s 7s 11 13 mph 1018.9mb 68f 66f
2:50pm 6.5ft 10s 8s 13 16 mph 1018.6mb 68f 66f
1:50pm 6ft 10s 8s 11 13 mph 1018.5mb 68f 68f
12:50pm 6.5ft 10s 8s 9 11 mph 1018.3mb 68f 67f
11:50am 7ft 10s 8s 9 11 mph 1018.3mb 68f 67f
10:50am 6.5ft 9s 8s 11
mph
1018.5mb 68f 67f
9:50am 6ft 9s 8s 9
mph
1018.4mb 68f 67f
8:50am 7ft 10s 8s 7 9 mph 1018.6mb 68f 67f
7:50am 6ft 10s 8s 7 9 mph 1018.7mb 69f 67f
6:50am 6.5ft 11s 8s 7 11 mph 1018.8mb 69f 67f
5:50am 6ft 11s 8s 9 11 mph 1018.8mb 69f 67f
4:50am 6ft 11s 8s 9 11 mph 1018.5mb 69f 67f
3:50am 6ft 10s 8s 7 11 mph 1018.1mb 69f 67f
2:50am 7ft 11s 8s 7 11 mph 1017.8mb 69f 68f
1:50am 7ft 11s 8s 9 11 mph 1018mb 69f 68f
12:50am 7ft 11s 8s 11 13 mph 1018mb 69f 68f
Sat 08/30 11:50pm 7ft 11s 8s 11 13 mph 1018.2mb 69f 68f
10:50pm 6ft 11s 8s 11 13 mph 1018.2mb 69f 67f
9:50pm 6ft 11s 8s 11 16 mph 1018.4mb 69f 67f
8:50pm 6ft 12s 8s 13 16 mph 1018.3mb 69f 67f
7:50pm 6ft 11s 8s 11 16 mph 1018.3mb 69f 67f
6:50pm 5.5ft 11s 7s 11 13 mph 1018.3mb 68f 67f
5:50pm 5ft 12s 7s 9 11 mph 1018.2mb 68f 67f
4:50pm 6ft 11s 8s 11 13 mph 1017.8mb 68f 67f
3:50pm 5ft 12s 7s 13 16 mph 1017.4mb 68f 67f
2:50pm 5ft 12s 7s 11 16 mph 1017mb 68f 67f
1:50pm 6ft 12s 7s 11 16 mph 1016.6mb 68f 67f
12:50pm 5.5ft 12s 7s 11 13 mph 1016.3mb 68f 67f
11:50am 6ft 12s 7s 13 16 mph 1016.3mb 68f 67f
10:50am 6ft 13s 8s 16 20 mph 1016.4mb 68f 67f
9:50am 5ft 13s 8s 11 16 mph 1016.4mb 68f 66f
8:50am 6ft 12s 8s 9 11 mph 1016.8mb 69f 66f
7:50am  -   -   -  4 7 mph 1016.8mb 69f 64f
6:50am 6ft 13s 7s 9
mph
1016.9mb 69f 65f
5:50am 5.5ft 13s 7s 16 18 mph 1016.8mb 69f 68f
4:50am 6.5ft 13s 7s 16
mph
1016.8mb 69f 68f
3:50am 6.5ft 14s 7s 16 18 mph 1016.5mb 69f 68f
2:50am 6.5ft 13s 7s 16 18 mph 1016.6mb 69f 68f